Hendricksville, Indiana
Current Conditions -  °F | °C
As of 6:53 AM on Thursday 18 Dec 2014 (Local Time) from KBMG Reporting Station
Overcast Overcast  
Wind Chill: 25°   Ceiling: 1300
Heat Index: 25°   Visibility: 10mi
Dew Point: 20°   Wind: 3mph
Humidity: 81%   Direction: 110°ESE
Pressure: 30.27"   Gusts: NA
Location:  39.1236°N, 86.7572°W
Report Text: KBMG 181153Z 11003KT 10SM OVC013 M04/M07 A3027 RMK AO2 SLP260 T10391067 11039 21044 53001
Loading
Personal Weather Stations






























Interactive Weather Map New forecast layout! Learn more

10-Day Weather Forecast

Advertisements
Track Severe Weather on mobile